A- A+ FrançaisEnglishEspañol中国

Services sur Internet Soldes sur Internet Des idées de cadeaux Météo Météo aéro

La météo à : Autours de vous Tarbes-Lourdes-PyrénéesPau-PyrénéesAlbertvilleBiarritz-Bayonne-Anglet

manche à air

La météo aéronautique pour les pilotes, la préparation du vol avec les METAR (METeorological Aerodrome Report, message d'observation des conditions météorologiques pour l'aviation) et Les TAF (Terminal Aerodrome Forecast : message de prévision à court terme des conditions météorologiques pour l'aviation). Et les autres ressources comme les VAC (Visual Approch Chart) et les NOTAM (Notice To Airman) pour préprer les vols.

Aéroport Kassel Calden (Allemagne) / OACI EDVK/ IATA KSF

L'altitude de l'aéroport Kassel Calden est de 250 m = 820 ft. Il est situé à proximité de Kassel (Allemagne). La météo générale à 5 jours est disponible pour Landkreis Kassel situé à 1 km.

METAR de l'aéroport Kassel Calden - EDVK

EDVK 101550Z 17009KT 9999 FEW026 02/M00 Q1022

Décodage du METAR de l'aéroport Kassel Calden (DE)

METAR émis par EDVK le mardi 10 décembre 2019 à 15:50 heure TU. Attention ce METAR est obsolète car il a été émis il y a 8 heure et 45 minutes.

La visibilité est de supérieure à 10 km = supérieure à 6.2 sm.

La température est de 2°C = 36 °F et le point rosée est de 0°C = 32 °F . Ce qui correspond à 87% d'humidité relative.

Le QNH est de 1022 hPa = 30.18 inHg

Vent de 9 kt = 17 km/h, orienté à 170°.

Nuages : Quelques nuages à 2600 ft = 790 mètres.

TAF de l'aéroport Kassel Calden - EDVK

EDVK 101700Z 1018/1103 17010KT CAVOK

EDVK 101700Z 1018/1103 17010KT visibilité supérieure à 10km, aucun nuage à une hauteur inférieure à 5000 ft ou sous l'altitude minimale de secteur et aucun cumulonimbus ou cumulus bourgeonnant, quelle que soit leur altitude

Aéroport à proximité de Kassel Calden

Météo générale à 5 jours à Landkreis Kassel (1 km)Aéroport Wolfhagen Graner Berg (19 km)Aéroport Holleberg (22 km)Aéroport Fritzlar (34 km)Aéroport Mosenberg (40 km)Aéroport Korbach (40 km)Aéroport Hoexter-Holzminden (43 km)

Vue aérienne de l'aéroport Kassel Calden

NOTAM de l'aéroport Kassel Calden

Les NOTAM sont fournis sans aucune garantie de leur actualité. Le pilote est le seul responsable de la vérification de sa validité avant de l'utiliser opérationnellement pour préparer un vol ou l'utiliser lors de sa navigation.

Pas de NOTAM

Sources des données